createdAt,value
2023-04-09T00:02:10.719Z,11.43
2023-04-09T00:05:12.438Z,10.98
2023-04-09T00:08:14.143Z,10.30
2023-04-09T00:11:15.780Z,10.27
2023-04-09T00:14:17.509Z,10.70
2023-04-09T00:17:19.208Z,10.75
2023-04-09T00:20:21.221Z,10.07
2023-04-09T00:23:23.013Z,11.02
2023-04-09T00:26:24.717Z,10.83
2023-04-09T00:29:26.576Z,11.43
2023-04-09T00:32:28.177Z,11.30
2023-04-09T00:35:29.911Z,11.45
2023-04-09T00:38:31.813Z,12.88
2023-04-09T00:41:33.441Z,11.83
2023-04-09T00:44:35.205Z,11.23
2023-04-09T00:47:36.935Z,10.73
2023-04-09T00:50:38.571Z,10.98
2023-04-09T00:53:40.764Z,11.23
2023-04-09T00:56:42.776Z,11.13
2023-04-09T00:59:45.108Z,10.98
2023-04-09T01:02:48.103Z,11.25
2023-04-09T01:06:10.722Z,10.48
2023-04-09T01:09:42.459Z,10.27
2023-04-09T01:12:53.139Z,10.20
2023-04-09T01:15:59.448Z,10.23
2023-04-09T01:19:15.584Z,10.63
2023-04-09T01:22:40.145Z,10.50
2023-04-09T01:26:07.638Z,10.40
2023-04-09T01:29:10.336Z,10.10
2023-04-09T01:32:14.139Z,10.32
2023-04-09T01:35:16.126Z,10.90
2023-04-09T01:38:19.905Z,10.48
2023-04-09T01:41:22.450Z,10.60
2023-04-09T01:44:25.631Z,10.60
2023-04-09T01:47:28.042Z,10.05
2023-04-09T01:50:29.824Z,10.63
2023-04-09T01:53:31.411Z,10.82
2023-04-09T01:56:43.262Z,11.65
2023-04-09T01:59:44.888Z,12.17
2023-04-09T02:02:59.451Z,11.82
2023-04-09T02:06:12.440Z,11.38
2023-04-09T02:09:18.355Z,10.90
2023-04-09T02:12:21.617Z,11.27
2023-04-09T02:15:24.571Z,10.77
2023-04-09T02:18:28.670Z,11.73
2023-04-09T02:21:30.386Z,11.20
2023-04-09T02:24:32.025Z,10.68
2023-04-09T02:27:33.650Z,10.68
2023-04-09T02:30:35.436Z,10.00
2023-04-09T02:33:37.032Z,10.15
2023-04-09T02:36:38.626Z,10.10
2023-04-09T02:39:40.305Z,10.65
2023-04-09T02:42:41.930Z,10.15
2023-04-09T02:45:43.499Z,9.77
2023-04-09T02:48:45.098Z,10.43
2023-04-09T02:51:46.861Z,11.15
2023-04-09T02:54:48.535Z,10.95
2023-04-09T02:57:50.132Z,11.38
2023-04-09T03:00:51.840Z,11.33
2023-04-09T03:03:53.623Z,12.27
2023-04-09T03:06:55.372Z,12.27
2023-04-09T03:09:57.043Z,11.63
2023-04-09T03:12:58.674Z,11.52
2023-04-09T03:16:00.411Z,11.37
2023-04-09T03:19:02.112Z,12.65
2023-04-09T03:22:03.698Z,11.82
2023-04-09T03:25:05.900Z,11.23
2023-04-09T03:28:07.498Z,13.30
2023-04-09T03:31:09.121Z,12.60
2023-04-09T03:34:10.878Z,10.90
2023-04-09T03:37:12.492Z,12.20
2023-04-09T03:40:14.247Z,11.45
2023-04-09T03:43:15.896Z,11.40
2023-04-09T03:46:18.631Z,10.40
2023-04-09T03:49:20.324Z,11.13
2023-04-09T03:52:21.951Z,10.82
2023-04-09T03:55:23.632Z,10.63
2023-04-09T03:58:25.204Z,10.77
2023-04-09T04:01:26.872Z,12.63
2023-04-09T04:04:28.624Z,13.77
2023-04-09T04:07:30.300Z,11.05
2023-04-09T04:10:34.069Z,11.32
2023-04-09T04:13:35.719Z,10.70
2023-04-09T04:16:37.397Z,10.70
2023-04-09T04:19:39.031Z,10.75
2023-04-09T04:22:40.702Z,11.15
2023-04-09T04:25:42.584Z,10.50
2023-04-09T04:28:44.190Z,10.38
2023-04-09T04:31:45.941Z,9.93
2023-04-09T04:34:50.197Z,10.23
2023-04-09T04:37:51.961Z,10.43
2023-04-09T04:40:53.577Z,10.10
2023-04-09T04:43:55.483Z,10.40
2023-04-09T04:46:57.070Z,10.20
2023-04-09T04:49:58.715Z,10.35
2023-04-09T04:53:00.505Z,10.10
2023-04-09T04:56:02.079Z,10.32
2023-04-09T04:59:03.667Z,10.27
2023-04-09T05:02:06.107Z,10.53
2023-04-09T05:05:08.024Z,9.57
2023-04-09T05:08:09.651Z,10.02
2023-04-09T05:11:15.340Z,9.35
2023-04-09T05:14:17.062Z,9.43
2023-04-09T05:17:21.289Z,8.93
2023-04-09T05:20:23.036Z,8.98
2023-04-09T05:23:24.625Z,8.98
2023-04-09T05:26:27.001Z,8.85
2023-04-09T05:29:28.584Z,8.95
2023-04-09T05:32:30.492Z,8.10
2023-04-09T05:35:32.151Z,7.93
2023-04-09T05:38:34.528Z,7.93
2023-04-09T05:41:38.609Z,7.72
2023-04-09T05:44:40.335Z,7.82
2023-04-09T05:47:42.047Z,7.00
2023-04-09T05:50:54.445Z,7.90
2023-04-09T05:53:56.951Z,7.53
2023-04-09T05:56:58.584Z,7.68
2023-04-09T06:00:00.552Z,8.10
2023-04-09T06:03:02.288Z,7.40
2023-04-09T06:06:04.284Z,7.25
2023-04-09T06:09:07.036Z,7.50
2023-04-09T06:12:08.610Z,7.65
2023-04-09T06:15:10.688Z,7.90
2023-04-09T06:18:12.428Z,7.53
2023-04-09T06:21:14.268Z,8.02
2023-04-09T06:24:16.066Z,7.82
2023-04-09T06:27:19.060Z,7.95
2023-04-09T06:30:20.890Z,8.82
2023-04-09T06:33:22.754Z,7.50
2023-04-09T06:36:24.614Z,8.38
2023-04-09T06:39:26.308Z,8.50
2023-04-09T06:42:28.046Z,8.05
2023-04-09T06:45:29.854Z,7.40
2023-04-09T06:48:31.545Z,8.00
2023-04-09T06:51:33.213Z,6.65
2023-04-09T06:54:34.936Z,6.35
2023-04-09T06:57:37.829Z,6.05
2023-04-09T07:00:39.738Z,5.20
2023-04-09T07:03:41.528Z,5.27
2023-04-09T07:06:43.437Z,5.40
2023-04-09T07:09:45.397Z,6.70
2023-04-09T07:12:47.166Z,6.43
2023-04-09T07:15:48.926Z,6.75
2023-04-09T07:18:50.794Z,6.47
2023-04-09T07:21:52.435Z,6.75
2023-04-09T07:24:54.976Z,6.28
2023-04-09T07:27:57.120Z,6.07
2023-04-09T07:31:01.321Z,6.30
2023-04-09T07:34:03.064Z,6.27
2023-04-09T07:37:04.728Z,5.70
2023-04-09T07:40:08.018Z,5.93
2023-04-09T07:43:09.606Z,6.25
2023-04-09T07:46:11.294Z,6.53
2023-04-09T07:49:12.909Z,6.43
2023-04-09T07:52:14.826Z,6.75
2023-04-09T07:55:17.426Z,6.60
2023-04-09T07:58:20.190Z,7.05
2023-04-09T08:01:24.691Z,6.72
2023-04-09T08:04:27.269Z,6.10
2023-04-09T08:07:29.088Z,6.45
2023-04-09T08:10:32.146Z,6.95
2023-04-09T08:13:33.820Z,6.57
2023-04-09T08:16:35.524Z,6.63
2023-04-09T08:19:40.476Z,6.90
2023-04-09T08:22:43.870Z,6.55
2023-04-09T08:25:45.492Z,6.55
2023-04-09T08:28:47.174Z,6.60
2023-04-09T08:31:48.901Z,6.82
2023-04-09T08:34:50.496Z,6.70
2023-04-09T08:37:52.106Z,6.50
2023-04-09T08:40:53.731Z,6.40
2023-04-09T08:43:58.750Z,6.97
2023-04-09T08:47:02.685Z,6.68
2023-04-09T08:50:04.811Z,7.10
2023-04-09T08:53:08.377Z,6.90
2023-04-09T08:56:10.091Z,6.70
2023-04-09T08:59:14.903Z,6.70
2023-04-09T09:02:16.786Z,6.90
2023-04-09T09:05:44.608Z,6.40
2023-04-09T09:09:00.652Z,7.00
2023-04-09T09:12:03.161Z,6.30
2023-04-09T09:15:07.400Z,6.60
2023-04-09T09:18:09.208Z,6.55
2023-04-09T09:21:18.062Z,6.17
2023-04-09T09:24:19.672Z,6.20
2023-04-09T09:27:36.914Z,6.35
2023-04-09T09:30:40.228Z,6.28
2023-04-09T09:33:42.435Z,6.35
2023-04-09T09:36:44.931Z,6.60
2023-04-09T09:39:46.552Z,6.40
2023-04-09T09:42:58.323Z,6.78
2023-04-09T09:46:00.627Z,6.55
2023-04-09T09:49:02.302Z,6.53
2023-04-09T09:52:09.423Z,6.40
2023-04-09T09:55:15.124Z,6.50
2023-04-09T09:58:19.862Z,6.53
2023-04-09T10:01:24.380Z,6.25
2023-04-09T10:04:29.136Z,6.50
2023-04-09T10:07:31.067Z,6.90
2023-04-09T10:10:33.418Z,6.75
2023-04-09T10:13:48.934Z,6.93
2023-04-09T10:16:51.594Z,6.68
2023-04-09T10:20:15.980Z,6.93
2023-04-09T10:23:42.137Z,6.73
2023-04-09T10:26:45.150Z,7.00
2023-04-09T10:29:48.810Z,6.50
2023-04-09T10:32:50.672Z,6.45
2023-04-09T10:35:54.029Z,6.35
2023-04-09T10:38:55.947Z,6.70
2023-04-09T10:41:59.752Z,6.60
2023-04-09T10:45:09.614Z,6.50
2023-04-09T10:48:13.516Z,6.40
2023-04-09T10:51:19.192Z,6.88
2023-04-09T10:54:33.417Z,6.97
2023-04-09T10:57:35.213Z,6.97
2023-04-09T11:00:41.853Z,7.43
2023-04-09T11:03:46.905Z,6.95
2023-04-09T11:06:49.113Z,7.20
2023-04-09T11:09:51.106Z,7.03
2023-04-09T11:12:53.832Z,7.68
2023-04-09T11:15:56.575Z,6.88
2023-04-09T11:18:58.426Z,6.75
2023-04-09T11:22:00.221Z,6.90
2023-04-09T11:25:02.153Z,7.30
2023-04-09T11:28:05.218Z,7.30
2023-04-09T11:31:07.395Z,7.22
2023-04-09T11:34:12.340Z,6.97
2023-04-09T11:37:17.317Z,7.70
2023-04-09T11:40:20.253Z,7.90
2023-04-09T11:43:21.937Z,7.90
2023-04-09T11:46:26.153Z,7.68
2023-04-09T11:49:27.920Z,7.60
2023-04-09T11:52:31.656Z,7.55
2023-04-09T11:55:33.795Z,7.97
2023-04-09T11:58:35.386Z,7.80
2023-04-09T12:01:37.290Z,8.10
2023-04-09T12:04:49.409Z,8.10
2023-04-09T12:07:56.306Z,7.82
2023-04-09T12:11:08.713Z,7.00
2023-04-09T12:14:16.395Z,7.40
2023-04-09T12:17:21.233Z,7.50
2023-04-09T12:20:32.155Z,7.40
2023-04-09T12:23:33.870Z,7.32
2023-04-09T12:26:35.484Z,7.83
2023-04-09T12:29:37.088Z,7.70
2023-04-09T12:32:39.016Z,7.43
2023-04-09T12:35:40.982Z,7.50
2023-04-09T12:38:42.942Z,7.60
2023-04-09T12:41:45.465Z,7.87
2023-04-09T12:44:47.371Z,7.45
2023-04-09T12:47:49.382Z,7.13
2023-04-09T12:50:51.172Z,7.18
2023-04-09T12:53:53.101Z,8.00
2023-04-09T12:56:55.308Z,7.60
2023-04-09T12:59:57.282Z,8.18
2023-04-09T13:02:59.100Z,7.60
2023-04-09T13:06:00.979Z,6.95
2023-04-09T13:09:02.823Z,7.22
2023-04-09T13:12:04.637Z,7.20
2023-04-09T13:15:07.185Z,7.15
2023-04-09T13:18:08.923Z,6.70
2023-04-09T13:21:10.850Z,7.35
2023-04-09T13:24:12.448Z,5.82
2023-04-09T13:27:14.374Z,6.90
2023-04-09T13:30:16.275Z,6.55
2023-04-09T13:33:17.926Z,5.90
2023-04-09T13:36:19.549Z,5.38
2023-04-09T13:39:21.202Z,5.82
2023-04-09T13:42:22.817Z,6.20
2023-04-09T13:45:25.557Z,5.50
2023-04-09T13:48:27.190Z,5.63
2023-04-09T13:51:31.827Z,5.40
2023-04-09T13:54:33.917Z,6.85
2023-04-09T13:57:35.706Z,7.87
2023-04-09T14:00:37.483Z,7.97
2023-04-09T14:03:40.302Z,8.10
2023-04-09T14:06:42.569Z,7.70
2023-04-09T14:09:44.290Z,7.60
2023-04-09T14:12:46.035Z,7.23
2023-04-09T14:15:47.813Z,7.32
2023-04-09T14:18:49.503Z,7.40
2023-04-09T14:21:53.294Z,7.43
2023-04-09T14:24:54.957Z,7.15
2023-04-09T14:27:57.748Z,7.60
2023-04-09T14:30:59.827Z,7.63
2023-04-09T14:34:01.612Z,7.35
2023-04-09T14:37:03.243Z,7.90
2023-04-09T14:40:05.826Z,7.05
2023-04-09T14:43:07.649Z,6.83
2023-04-09T14:46:12.134Z,6.82
2023-04-09T14:49:13.837Z,6.85
2023-04-09T14:52:15.675Z,6.57
2023-04-09T14:55:17.301Z,7.28
2023-04-09T14:58:18.915Z,7.47
2023-04-09T15:01:20.900Z,7.00
2023-04-09T15:04:22.655Z,7.38
2023-04-09T15:07:25.279Z,6.88
2023-04-09T15:10:27.021Z,7.13
2023-04-09T15:13:28.664Z,6.97
2023-04-09T15:16:32.185Z,8.60
2023-04-09T15:19:33.826Z,9.10
2023-04-09T15:22:35.893Z,7.78
2023-04-09T15:25:37.809Z,8.30
2023-04-09T15:28:39.426Z,7.60
2023-04-09T15:31:41.724Z,7.78
2023-04-09T15:34:43.517Z,8.10
2023-04-09T15:37:45.293Z,7.90
2023-04-09T15:40:47.245Z,8.60
2023-04-09T15:43:48.941Z,9.47
2023-04-09T15:46:50.990Z,8.25
2023-04-09T15:49:52.605Z,8.20
2023-04-09T15:52:56.178Z,8.93
2023-04-09T15:55:58.320Z,8.40
2023-04-09T15:59:02.180Z,8.67
2023-04-09T16:02:04.636Z,6.78
2023-04-09T16:05:07.246Z,7.03
2023-04-09T16:08:09.220Z,6.88
2023-04-09T16:11:10.921Z,7.32
2023-04-09T16:14:12.544Z,7.47
2023-04-09T16:17:14.189Z,7.18
2023-04-09T16:20:16.161Z,7.05
2023-04-09T16:23:17.858Z,7.00
2023-04-09T16:26:19.502Z,8.10
2023-04-09T16:29:21.179Z,7.07
2023-04-09T16:32:22.880Z,7.35
2023-04-09T16:35:24.520Z,7.38
2023-04-09T16:38:27.613Z,7.00
2023-04-09T16:41:29.366Z,7.53
2023-04-09T16:44:31.358Z,6.90
2023-04-09T16:47:33.264Z,7.18
2023-04-09T16:50:34.956Z,7.20
2023-04-09T16:53:38.806Z,7.13
2023-04-09T16:56:40.779Z,7.35
2023-04-09T16:59:42.928Z,7.17
2023-04-09T17:02:45.980Z,7.00
2023-04-09T17:05:49.493Z,6.53
2023-04-09T17:08:51.726Z,6.80
2023-04-09T17:11:53.448Z,7.15
2023-04-09T17:14:55.108Z,6.77
2023-04-09T17:17:58.490Z,7.07
2023-04-09T17:21:00.664Z,7.45
2023-04-09T17:24:03.058Z,6.57
2023-04-09T17:27:04.666Z,7.25
2023-04-09T17:30:06.838Z,7.07
2023-04-09T17:33:08.786Z,7.10
2023-04-09T17:36:10.474Z,6.68
2023-04-09T17:39:12.626Z,6.70
2023-04-09T17:42:14.258Z,6.68
2023-04-09T17:45:16.079Z,6.80
2023-04-09T17:48:17.964Z,7.10
2023-04-09T17:51:19.957Z,7.15
2023-04-09T17:54:21.786Z,13.02
2023-04-09T17:57:23.392Z,19.88
2023-04-09T18:00:25.335Z,22.03
2023-04-09T18:03:27.602Z,18.67
2023-04-09T18:06:29.430Z,13.85
2023-04-09T18:09:31.199Z,9.35
2023-04-09T18:12:32.891Z,9.23
2023-04-09T18:15:34.674Z,9.47
2023-04-09T18:18:36.701Z,8.70
2023-04-09T18:21:41.258Z,7.05
2023-04-09T18:24:42.872Z,6.85
2023-04-09T18:27:45.784Z,7.00
2023-04-09T18:30:47.467Z,7.27
2023-04-09T18:33:49.075Z,7.18
2023-04-09T18:36:51.247Z,7.85
2023-04-09T18:39:52.847Z,7.97
2023-04-09T18:42:54.636Z,8.57
2023-04-09T18:45:57.262Z,8.23
2023-04-09T18:48:58.843Z,9.52
2023-04-09T18:52:00.838Z,9.02
2023-04-09T18:55:02.437Z,9.02
2023-04-09T18:58:12.955Z,8.75
2023-04-09T19:01:14.650Z,7.67
2023-04-09T19:04:16.449Z,8.85
2023-04-09T19:07:19.566Z,10.88
2023-04-09T19:10:21.901Z,11.10
2023-04-09T19:13:23.495Z,10.90
2023-04-09T19:16:25.120Z,10.67
2023-04-09T19:19:29.085Z,10.50
2023-04-09T19:22:31.138Z,9.98
2023-04-09T19:25:34.205Z,12.00
2023-04-09T19:28:36.211Z,11.45
2023-04-09T19:31:37.921Z,10.33
2023-04-09T19:34:39.539Z,11.32
2023-04-09T19:37:41.124Z,11.68
2023-04-09T19:40:43.005Z,12.23
2023-04-09T19:43:46.262Z,12.23
2023-04-09T19:46:47.893Z,12.00
2023-04-09T19:49:49.611Z,12.13
2023-04-09T19:52:53.649Z,11.88
2023-04-09T19:55:55.427Z,12.32
2023-04-09T19:58:57.091Z,11.73
2023-04-09T20:01:59.988Z,12.47
2023-04-09T20:05:01.770Z,11.88
2023-04-09T20:08:04.506Z,11.27
2023-04-09T20:11:06.851Z,10.63
2023-04-09T20:14:12.135Z,10.55
2023-04-09T20:17:13.832Z,10.87
2023-04-09T20:20:19.962Z,11.07
2023-04-09T20:23:21.764Z,11.18
2023-04-09T20:26:23.390Z,11.27
2023-04-09T20:29:25.515Z,11.63
2023-04-09T20:32:27.184Z,11.77
2023-04-09T20:35:28.783Z,12.55
2023-04-09T20:38:30.972Z,11.45
2023-04-09T20:41:32.598Z,11.23
2023-04-09T20:44:34.341Z,11.30
2023-04-09T20:47:36.398Z,10.40
2023-04-09T20:50:38.085Z,11.35
2023-04-09T20:53:39.778Z,10.95
2023-04-09T20:56:41.535Z,10.48
2023-04-09T20:59:43.355Z,11.27
2023-04-09T21:02:45.077Z,10.93
2023-04-09T21:05:46.786Z,10.82
2023-04-09T21:08:48.503Z,10.98
2023-04-09T21:11:50.189Z,10.43
2023-04-09T21:14:51.786Z,10.95
2023-04-09T21:17:53.534Z,10.60
2023-04-09T21:20:55.464Z,10.60
2023-04-09T21:23:57.082Z,10.30
2023-04-09T21:26:58.932Z,10.88
2023-04-09T21:30:00.727Z,10.65
2023-04-09T21:33:03.286Z,10.43
2023-04-09T21:36:07.038Z,10.77
2023-04-09T21:39:08.840Z,10.20
2023-04-09T21:42:10.594Z,9.82
2023-04-09T21:45:12.271Z,10.32
2023-04-09T21:48:13.923Z,10.30
2023-04-09T21:51:15.699Z,10.25
2023-04-09T21:54:17.313Z,10.25
2023-04-09T21:57:19.129Z,9.68
2023-04-09T22:00:21.161Z,10.30
2023-04-09T22:03:23.672Z,10.57
2023-04-09T22:06:27.196Z,10.15
2023-04-09T22:09:28.929Z,9.80
2023-04-09T22:12:30.571Z,10.02
2023-04-09T22:15:32.475Z,9.45
2023-04-09T22:18:37.112Z,9.57
2023-04-09T22:21:38.727Z,9.65
2023-04-09T22:24:41.787Z,10.18
2023-04-09T22:27:43.890Z,9.35
2023-04-09T22:30:46.006Z,9.50
2023-04-09T22:33:47.630Z,9.13
2023-04-09T22:36:49.576Z,9.52
2023-04-09T22:39:51.354Z,8.93
2023-04-09T22:42:52.997Z,9.35
2023-04-09T22:45:55.992Z,9.73
2023-04-09T22:49:04.476Z,9.80
2023-04-09T22:52:06.909Z,9.32
2023-04-09T22:55:10.201Z,9.68
2023-04-09T22:58:11.925Z,9.90
2023-04-09T23:01:13.625Z,10.32
2023-04-09T23:04:15.633Z,9.83
2023-04-09T23:07:17.276Z,10.73
2023-04-09T23:10:19.182Z,11.75
2023-04-09T23:13:20.802Z,11.13
2023-04-09T23:16:22.887Z,10.70
2023-04-09T23:19:24.469Z,10.70
2023-04-09T23:22:27.348Z,10.55
2023-04-09T23:25:29.361Z,10.43
2023-04-09T23:28:31.307Z,10.48
2023-04-09T23:31:32.930Z,9.98
2023-04-09T23:34:34.677Z,9.90
2023-04-09T23:37:40.278Z,10.55
2023-04-09T23:40:42.724Z,10.88
2023-04-09T23:43:44.439Z,10.45
2023-04-09T23:46:46.782Z,10.20
2023-04-09T23:49:48.400Z,10.20
2023-04-09T23:52:50.676Z,10.38
2023-04-09T23:55:52.777Z,10.00
2023-04-09T23:58:54.463Z,10.25
